sensor_id;sensor_type;location;lat;lon;timestamp;P1;durP1;ratioP1;P2;durP2;ratioP2
51216;SDS011;37283;49.760;8.648;2022-09-20T00:01:23;4.55;;;1.60;;
51216;SDS011;37283;49.760;8.648;2022-09-20T00:03:52;4.28;;;1.70;;
51216;SDS011;37283;49.760;8.648;2022-09-20T00:06:21;6.70;;;1.50;;
51216;SDS011;37283;49.760;8.648;2022-09-20T00:08:49;6.18;;;1.80;;
51216;SDS011;37283;49.760;8.648;2022-09-20T00:11:26;4.85;;;1.60;;
51216;SDS011;37283;49.760;8.648;2022-09-20T00:13:54;4.43;;;1.35;;
51216;SDS011;37283;49.760;8.648;2022-09-20T00:16:23;5.43;;;1.27;;
51216;SDS011;37283;49.760;8.648;2022-09-20T00:18:52;2.78;;;1.35;;
51216;SDS011;37283;49.760;8.648;2022-09-20T00:21:21;6.00;;;1.50;;
51216;SDS011;37283;49.760;8.648;2022-09-20T00:23:50;6.45;;;1.52;;
51216;SDS011;37283;49.760;8.648;2022-09-20T00:26:17;6.45;;;1.58;;
51216;SDS011;37283;49.760;8.648;2022-09-20T00:28:44;6.35;;;1.60;;
51216;SDS011;37283;49.760;8.648;2022-09-20T00:31:12;6.28;;;1.70;;
51216;SDS011;37283;49.760;8.648;2022-09-20T00:33:39;5.55;;;1.70;;
51216;SDS011;37283;49.760;8.648;2022-09-20T00:36:24;6.25;;;1.40;;
51216;SDS011;37283;49.760;8.648;2022-09-20T00:39:00;5.30;;;1.60;;
51216;SDS011;37283;49.760;8.648;2022-09-20T00:41:29;5.32;;;1.70;;
51216;SDS011;37283;49.760;8.648;2022-09-20T00:43:56;9.70;;;1.90;;
51216;SDS011;37283;49.760;8.648;2022-09-20T00:49:02;8.60;;;1.85;;
51216;SDS011;37283;49.760;8.648;2022-09-20T00:51:50;3.85;;;1.48;;
51216;SDS011;37283;49.760;8.648;2022-09-20T00:54:22;6.22;;;2.00;;
51216;SDS011;37283;49.760;8.648;2022-09-20T00:56:49;6.18;;;1.60;;
51216;SDS011;37283;49.760;8.648;2022-09-20T00:59:19;6.30;;;1.65;;
51216;SDS011;37283;49.760;8.648;2022-09-20T01:01:49;11.50;;;1.70;;
51216;SDS011;37283;49.760;8.648;2022-09-20T01:04:22;9.98;;;1.75;;
51216;SDS011;37283;49.760;8.648;2022-09-20T01:06:51;6.82;;;1.50;;
51216;SDS011;37283;49.760;8.648;2022-09-20T01:09:19;5.57;;;1.77;;
51216;SDS011;37283;49.760;8.648;2022-09-20T01:11:45;8.13;;;1.48;;
51216;SDS011;37283;49.760;8.648;2022-09-20T01:14:13;7.68;;;2.33;;
51216;SDS011;37283;49.760;8.648;2022-09-20T01:16:41;12.60;;;1.92;;
51216;SDS011;37283;49.760;8.648;2022-09-20T01:19:18;6.28;;;1.77;;
51216;SDS011;37283;49.760;8.648;2022-09-20T01:21:49;6.30;;;1.63;;
51216;SDS011;37283;49.760;8.648;2022-09-20T01:24:26;5.65;;;1.60;;
51216;SDS011;37283;49.760;8.648;2022-09-20T01:27:16;6.03;;;1.70;;
51216;SDS011;37283;49.760;8.648;2022-09-20T01:30:05;6.18;;;2.00;;
51216;SDS011;37283;49.760;8.648;2022-09-20T01:35:23;8.40;;;1.77;;
51216;SDS011;37283;49.760;8.648;2022-09-20T01:38:10;9.05;;;2.00;;
51216;SDS011;37283;49.760;8.648;2022-09-20T01:40:48;6.93;;;2.17;;
51216;SDS011;37283;49.760;8.648;2022-09-20T01:43:28;6.88;;;1.83;;
51216;SDS011;37283;49.760;8.648;2022-09-20T01:46:02;7.75;;;1.98;;
51216;SDS011;37283;49.760;8.648;2022-09-20T01:48:38;9.02;;;1.67;;
51216;SDS011;37283;49.760;8.648;2022-09-20T01:51:09;5.57;;;1.60;;
51216;SDS011;37283;49.760;8.648;2022-09-20T02:13:29;10.80;;;2.22;;
51216;SDS011;37283;49.760;8.648;2022-09-20T02:16:03;5.82;;;2.05;;
51216;SDS011;37283;49.760;8.648;2022-09-20T02:18:46;9.25;;;1.95;;
51216;SDS011;37283;49.760;8.648;2022-09-20T02:21:53;6.22;;;1.98;;
51216;SDS011;37283;49.760;8.648;2022-09-20T02:32:46;7.38;;;2.17;;
51216;SDS011;37283;49.760;8.648;2022-09-20T02:38:19;10.20;;;2.15;;
51216;SDS011;37283;49.760;8.648;2022-09-20T02:43:47;10.20;;;2.28;;
51216;SDS011;37283;49.760;8.648;2022-09-20T02:46:27;9.05;;;2.35;;
51216;SDS011;37283;49.760;8.648;2022-09-20T02:52:01;11.02;;;2.38;;
51216;SDS011;37283;49.760;8.648;2022-09-20T02:54:44;5.95;;;2.50;;
51216;SDS011;37283;49.760;8.648;2022-09-20T03:00:04;7.10;;;1.80;;
51216;SDS011;37283;49.760;8.648;2022-09-20T03:03:12;6.63;;;2.00;;
51216;SDS011;37283;49.760;8.648;2022-09-20T03:05:49;11.90;;;2.35;;
51216;SDS011;37283;49.760;8.648;2022-09-20T03:08:27;6.13;;;2.35;;
51216;SDS011;37283;49.760;8.648;2022-09-20T03:13:59;6.80;;;2.08;;
51216;SDS011;37283;49.760;8.648;2022-09-20T03:16:52;8.98;;;2.35;;
51216;SDS011;37283;49.760;8.648;2022-09-20T03:19:31;5.47;;;1.75;;
51216;SDS011;37283;49.760;8.648;2022-09-20T03:22:17;9.82;;;2.63;;
51216;SDS011;37283;49.760;8.648;2022-09-20T03:25:06;7.35;;;2.22;;
51216;SDS011;37283;49.760;8.648;2022-09-20T03:39:23;8.48;;;2.28;;
51216;SDS011;37283;49.760;8.648;2022-09-20T03:44:44;8.18;;;2.22;;
51216;SDS011;37283;49.760;8.648;2022-09-20T03:58:42;9.88;;;2.75;;
51216;SDS011;37283;49.760;8.648;2022-09-20T04:07:11;9.55;;;2.50;;
51216;SDS011;37283;49.760;8.648;2022-09-20T04:10:02;13.85;;;2.75;;
51216;SDS011;37283;49.760;8.648;2022-09-20T04:12:49;9.30;;;2.10;;
51216;SDS011;37283;49.760;8.648;2022-09-20T04:20:45;11.15;;;2.22;;
51216;SDS011;37283;49.760;8.648;2022-09-20T04:23:20;11.88;;;2.67;;
51216;SDS011;37283;49.760;8.648;2022-09-20T04:26:10;9.85;;;2.53;;
51216;SDS011;37283;49.760;8.648;2022-09-20T04:28:42;9.55;;;2.47;;
51216;SDS011;37283;49.760;8.648;2022-09-20T04:31:21;10.65;;;2.45;;
51216;SDS011;37283;49.760;8.648;2022-09-20T04:33:55;11.00;;;2.70;;
51216;SDS011;37283;49.760;8.648;2022-09-20T04:39:48;7.60;;;2.30;;
51216;SDS011;37283;49.760;8.648;2022-09-20T04:42:26;11.95;;;2.42;;
51216;SDS011;37283;49.760;8.648;2022-09-20T04:48:21;9.73;;;2.67;;
51216;SDS011;37283;49.760;8.648;2022-09-20T04:54:11;8.02;;;2.67;;
51216;SDS011;37283;49.760;8.648;2022-09-20T04:57:29;7.53;;;2.58;;
51216;SDS011;37283;49.760;8.648;2022-09-20T05:00:15;8.73;;;3.22;;
51216;SDS011;37283;49.760;8.648;2022-09-20T05:11:06;8.43;;;2.92;;
51216;SDS011;37283;49.760;8.648;2022-09-20T05:19:41;7.88;;;2.97;;
51216;SDS011;37283;49.760;8.648;2022-09-20T05:25:37;8.73;;;2.92;;
51216;SDS011;37283;49.760;8.648;2022-09-20T05:41:58;8.48;;;2.47;;
51216;SDS011;37283;49.760;8.648;2022-09-20T05:44:49;7.03;;;2.80;;
51216;SDS011;37283;49.760;8.648;2022-09-20T05:47:23;8.45;;;2.67;;
51216;SDS011;37283;49.760;8.648;2022-09-20T06:01:10;13.20;;;2.90;;
51216;SDS011;37283;49.760;8.648;2022-09-20T06:03:42;12.13;;;3.13;;
51216;SDS011;37283;49.760;8.648;2022-09-20T06:06:37;8.13;;;2.90;;
51216;SDS011;37283;49.760;8.648;2022-09-20T06:14:54;11.68;;;2.78;;
51216;SDS011;37283;49.760;8.648;2022-09-20T06:22:32;9.43;;;2.80;;
51216;SDS011;37283;49.760;8.648;2022-09-20T06:25:03;8.80;;;2.97;;
51216;SDS011;37283;49.760;8.648;2022-09-20T06:27:42;10.40;;;3.03;;
51216;SDS011;37283;49.760;8.648;2022-09-20T06:30:34;13.00;;;3.83;;
51216;SDS011;37283;49.760;8.648;2022-09-20T06:35:39;11.85;;;3.38;;
51216;SDS011;37283;49.760;8.648;2022-09-20T06:41:26;12.13;;;3.13;;
51216;SDS011;37283;49.760;8.648;2022-09-20T06:44:00;9.75;;;3.00;;
51216;SDS011;37283;49.760;8.648;2022-09-20T06:46:29;10.85;;;3.25;;
51216;SDS011;37283;49.760;8.648;2022-09-20T06:48:59;9.13;;;2.83;;
51216;SDS011;37283;49.760;8.648;2022-09-20T06:51:27;8.55;;;3.53;;
51216;SDS011;37283;49.760;8.648;2022-09-20T06:53:54;11.17;;;3.60;;
51216;SDS011;37283;49.760;8.648;2022-09-20T06:56:25;10.90;;;3.13;;
51216;SDS011;37283;49.760;8.648;2022-09-20T06:58:54;14.43;;;3.17;;
51216;SDS011;37283;49.760;8.648;2022-09-20T07:01:21;10.15;;;2.83;;
51216;SDS011;37283;49.760;8.648;2022-09-20T07:03:56;8.00;;;2.58;;
51216;SDS011;37283;49.760;8.648;2022-09-20T07:06:23;10.98;;;2.70;;
51216;SDS011;37283;49.760;8.648;2022-09-20T07:08:49;9.23;;;2.53;;
51216;SDS011;37283;49.760;8.648;2022-09-20T07:11:16;9.73;;;2.60;;
51216;SDS011;37283;49.760;8.648;2022-09-20T07:13:43;12.10;;;3.97;;
51216;SDS011;37283;49.760;8.648;2022-09-20T07:16:10;9.70;;;3.55;;
51216;SDS011;37283;49.760;8.648;2022-09-20T07:18:39;9.02;;;2.78;;
51216;SDS011;37283;49.760;8.648;2022-09-20T07:21:12;7.15;;;2.90;;
51216;SDS011;37283;49.760;8.648;2022-09-20T07:23:40;9.65;;;3.08;;
51216;SDS011;37283;49.760;8.648;2022-09-20T07:26:15;7.95;;;2.90;;
51216;SDS011;37283;49.760;8.648;2022-09-20T07:28:49;10.88;;;3.90;;
51216;SDS011;37283;49.760;8.648;2022-09-20T07:31:18;10.55;;;3.55;;
51216;SDS011;37283;49.760;8.648;2022-09-20T07:33:46;12.18;;;3.60;;
51216;SDS011;37283;49.760;8.648;2022-09-20T07:36:12;7.13;;;2.88;;
51216;SDS011;37283;49.760;8.648;2022-09-20T07:38:39;15.05;;;3.25;;
51216;SDS011;37283;49.760;8.648;2022-09-20T07:41:07;10.13;;;3.10;;
51216;SDS011;37283;49.760;8.648;2022-09-20T07:43:34;11.35;;;2.70;;
51216;SDS011;37283;49.760;8.648;2022-09-20T07:46:01;12.95;;;3.03;;
51216;SDS011;37283;49.760;8.648;2022-09-20T07:48:28;9.30;;;2.90;;
51216;SDS011;37283;49.760;8.648;2022-09-20T07:51:03;10.20;;;2.90;;
51216;SDS011;37283;49.760;8.648;2022-09-20T07:53:34;11.98;;;3.60;;
51216;SDS011;37283;49.760;8.648;2022-09-20T07:56:02;9.75;;;3.17;;
51216;SDS011;37283;49.760;8.648;2022-09-20T07:58:33;10.02;;;3.53;;
51216;SDS011;37283;49.760;8.648;2022-09-20T08:01:01;9.25;;;4.60;;
51216;SDS011;37283;49.760;8.648;2022-09-20T08:03:30;12.32;;;5.20;;
51216;SDS011;37283;49.760;8.648;2022-09-20T08:05:58;8.25;;;4.40;;
51216;SDS011;37283;49.760;8.648;2022-09-20T08:08:43;12.07;;;3.63;;
51216;SDS011;37283;49.760;8.648;2022-09-20T08:11:11;14.48;;;4.18;;
51216;SDS011;37283;49.760;8.648;2022-09-20T08:13:43;9.70;;;3.80;;
51216;SDS011;37283;49.760;8.648;2022-09-20T08:16:35;8.63;;;3.05;;
51216;SDS011;37283;49.760;8.648;2022-09-20T08:19:04;12.50;;;3.80;;
51216;SDS011;37283;49.760;8.648;2022-09-20T08:21:31;14.65;;;4.30;;
51216;SDS011;37283;49.760;8.648;2022-09-20T08:23:59;10.03;;;4.20;;
51216;SDS011;37283;49.760;8.648;2022-09-20T08:26:28;14.18;;;3.97;;
51216;SDS011;37283;49.760;8.648;2022-09-20T08:28:57;9.07;;;4.00;;
51216;SDS011;37283;49.760;8.648;2022-09-20T08:31:25;10.00;;;3.78;;
51216;SDS011;37283;49.760;8.648;2022-09-20T08:33:53;10.60;;;3.50;;
51216;SDS011;37283;49.760;8.648;2022-09-20T08:36:21;11.98;;;3.90;;
51216;SDS011;37283;49.760;8.648;2022-09-20T08:38:49;10.27;;;3.63;;
51216;SDS011;37283;49.760;8.648;2022-09-20T08:41:41;11.10;;;3.63;;
51216;SDS011;37283;49.760;8.648;2022-09-20T08:44:15;12.05;;;4.38;;
51216;SDS011;37283;49.760;8.648;2022-09-20T08:46:46;14.63;;;4.35;;
51216;SDS011;37283;49.760;8.648;2022-09-20T08:49:16;10.85;;;4.13;;
51216;SDS011;37283;49.760;8.648;2022-09-20T08:51:52;11.55;;;4.28;;
51216;SDS011;37283;49.760;8.648;2022-09-20T08:54:19;13.55;;;4.20;;
51216;SDS011;37283;49.760;8.648;2022-09-20T08:56:49;12.15;;;4.53;;
51216;SDS011;37283;49.760;8.648;2022-09-20T08:59:20;14.07;;;4.60;;
51216;SDS011;37283;49.760;8.648;2022-09-20T09:01:48;12.13;;;4.28;;
51216;SDS011;37283;49.760;8.648;2022-09-20T09:06:43;14.15;;;4.18;;
51216;SDS011;37283;49.760;8.648;2022-09-20T09:09:17;12.52;;;3.88;;
51216;SDS011;37283;49.760;8.648;2022-09-20T09:11:48;10.27;;;4.15;;
51216;SDS011;37283;49.760;8.648;2022-09-20T09:14:20;14.07;;;4.72;;
51216;SDS011;37283;49.760;8.648;2022-09-20T09:17:15;9.13;;;4.07;;
51216;SDS011;37283;49.760;8.648;2022-09-20T09:19:53;8.40;;;3.83;;
51216;SDS011;37283;49.760;8.648;2022-09-20T09:22:47;10.27;;;4.25;;
51216;SDS011;37283;49.760;8.648;2022-09-20T09:30:42;12.23;;;4.60;;
51216;SDS011;37283;49.760;8.648;2022-09-20T09:33:14;15.43;;;4.95;;
51216;SDS011;37283;49.760;8.648;2022-09-20T09:35:52;8.07;;;3.30;;
51216;SDS011;37283;49.760;8.648;2022-09-20T09:38:37;9.35;;;3.28;;
51216;SDS011;37283;49.760;8.648;2022-09-20T09:41:06;12.88;;;3.33;;
51216;SDS011;37283;49.760;8.648;2022-09-20T09:44:01;12.90;;;3.47;;
51216;SDS011;37283;49.760;8.648;2022-09-20T09:46:46;10.88;;;3.55;;
51216;SDS011;37283;49.760;8.648;2022-09-20T09:49:19;13.23;;;4.15;;
51216;SDS011;37283;49.760;8.648;2022-09-20T09:52:01;7.93;;;3.33;;
51216;SDS011;37283;49.760;8.648;2022-09-20T09:54:39;9.65;;;3.13;;
51216;SDS011;37283;49.760;8.648;2022-09-20T09:59:55;7.40;;;2.70;;
51216;SDS011;37283;49.760;8.648;2022-09-20T10:02:57;10.43;;;3.35;;
51216;SDS011;37283;49.760;8.648;2022-09-20T10:05:31;9.88;;;3.28;;
51216;SDS011;37283;49.760;8.648;2022-09-20T10:13:18;9.38;;;3.70;;
51216;SDS011;37283;49.760;8.648;2022-09-20T10:15:55;7.75;;;3.35;;
51216;SDS011;37283;49.760;8.648;2022-09-20T10:18:32;12.10;;;3.33;;
51216;SDS011;37283;49.760;8.648;2022-09-20T10:21:05;10.38;;;3.40;;
51216;SDS011;37283;49.760;8.648;2022-09-20T10:23:51;9.63;;;2.92;;
51216;SDS011;37283;49.760;8.648;2022-09-20T10:26:37;8.70;;;3.10;;
51216;SDS011;37283;49.760;8.648;2022-09-20T10:32:01;10.43;;;3.15;;
51216;SDS011;37283;49.760;8.648;2022-09-20T10:34:47;10.18;;;3.22;;
51216;SDS011;37283;49.760;8.648;2022-09-20T10:42:44;8.20;;;3.28;;
51216;SDS011;37283;49.760;8.648;2022-09-20T10:45:41;11.15;;;3.70;;
51216;SDS011;37283;49.760;8.648;2022-09-20T10:48:46;7.55;;;2.75;;
51216;SDS011;37283;49.760;8.648;2022-09-20T10:55:07;12.65;;;3.00;;
51216;SDS011;37283;49.760;8.648;2022-09-20T11:00:22;6.15;;;2.00;;
51216;SDS011;37283;49.760;8.648;2022-09-20T11:02:54;8.30;;;3.97;;
51216;SDS011;37283;49.760;8.648;2022-09-20T11:08:27;9.85;;;4.40;;
51216;SDS011;37283;49.760;8.648;2022-09-20T11:10:58;6.68;;;1.95;;
51216;SDS011;37283;49.760;8.648;2022-09-20T11:13:32;8.48;;;2.65;;
51216;SDS011;37283;49.760;8.648;2022-09-20T11:16:15;8.88;;;2.28;;
51216;SDS011;37283;49.760;8.648;2022-09-20T11:18:57;7.35;;;2.90;;
51216;SDS011;37283;49.760;8.648;2022-09-20T11:21:30;7.32;;;2.20;;
51216;SDS011;37283;49.760;8.648;2022-09-20T11:26:58;4.88;;;1.90;;
51216;SDS011;37283;49.760;8.648;2022-09-20T11:29:45;6.93;;;2.47;;
51216;SDS011;37283;49.760;8.648;2022-09-20T11:32:20;6.97;;;2.13;;
51216;SDS011;37283;49.760;8.648;2022-09-20T11:34:51;4.82;;;2.08;;
51216;SDS011;37283;49.760;8.648;2022-09-20T11:37:24;7.22;;;2.50;;
51216;SDS011;37283;49.760;8.648;2022-09-20T11:40:00;6.03;;;2.20;;
51216;SDS011;37283;49.760;8.648;2022-09-20T11:42:30;6.13;;;1.92;;
51216;SDS011;37283;49.760;8.648;2022-09-20T11:44:59;8.07;;;1.77;;
51216;SDS011;37283;49.760;8.648;2022-09-20T11:47:30;3.25;;;1.55;;
51216;SDS011;37283;49.760;8.648;2022-09-20T11:53:20;4.85;;;1.73;;
51216;SDS011;37283;49.760;8.648;2022-09-20T11:56:18;5.47;;;1.60;;
51216;SDS011;37283;49.760;8.648;2022-09-20T11:58:51;6.32;;;1.65;;
51216;SDS011;37283;49.760;8.648;2022-09-20T12:01:23;3.60;;;1.40;;
51216;SDS011;37283;49.760;8.648;2022-09-20T12:04:10;5.22;;;1.85;;
51216;SDS011;37283;49.760;8.648;2022-09-20T12:06:59;5.63;;;1.73;;
51216;SDS011;37283;49.760;8.648;2022-09-20T12:09:54;7.00;;;1.83;;
51216;SDS011;37283;49.760;8.648;2022-09-20T12:12:26;9.57;;;2.15;;
51216;SDS011;37283;49.760;8.648;2022-09-20T12:14:57;8.88;;;3.17;;
51216;SDS011;37283;49.760;8.648;2022-09-20T12:18:00;5.63;;;2.22;;
51216;SDS011;37283;49.760;8.648;2022-09-20T12:26:07;7.82;;;2.45;;
51216;SDS011;37283;49.760;8.648;2022-09-20T12:28:36;6.20;;;2.25;;
51216;SDS011;37283;49.760;8.648;2022-09-20T12:34:01;6.65;;;2.22;;
51216;SDS011;37283;49.760;8.648;2022-09-20T12:36:41;6.35;;;2.35;;
51216;SDS011;37283;49.760;8.648;2022-09-20T12:42:05;6.00;;;2.20;;
51216;SDS011;37283;49.760;8.648;2022-09-20T12:47:16;4.28;;;2.00;;
51216;SDS011;37283;49.760;8.648;2022-09-20T12:55:35;6.70;;;1.67;;
51216;SDS011;37283;49.760;8.648;2022-09-20T13:06:20;4.95;;;1.90;;
51216;SDS011;37283;49.760;8.648;2022-09-20T13:11:33;7.35;;;2.00;;
51216;SDS011;37283;49.760;8.648;2022-09-20T13:14:22;5.68;;;1.92;;
51216;SDS011;37283;49.760;8.648;2022-09-20T13:19:33;5.90;;;1.98;;
51216;SDS011;37283;49.760;8.648;2022-09-20T13:22:17;5.90;;;1.90;;
51216;SDS011;37283;49.760;8.648;2022-09-20T13:24:48;5.72;;;1.80;;
51216;SDS011;37283;49.760;8.648;2022-09-20T13:27:18;4.68;;;2.10;;
51216;SDS011;37283;49.760;8.648;2022-09-20T13:29:47;4.53;;;2.03;;
51216;SDS011;37283;49.760;8.648;2022-09-20T13:37:35;4.80;;;1.80;;
51216;SDS011;37283;49.760;8.648;2022-09-20T13:40:55;5.93;;;1.98;;
51216;SDS011;37283;49.760;8.648;2022-09-20T13:43:01;7.45;;;2.08;;
51216;SDS011;37283;49.760;8.648;2022-09-20T13:48:24;6.63;;;2.25;;
51216;SDS011;37283;49.760;8.648;2022-09-20T13:50:57;3.78;;;1.90;;
51216;SDS011;37283;49.760;8.648;2022-09-20T13:53:24;2.97;;;1.52;;
51216;SDS011;37283;49.760;8.648;2022-09-20T13:56:09;6.22;;;2.05;;
51216;SDS011;37283;49.760;8.648;2022-09-20T13:58:43;3.92;;;1.70;;
51216;SDS011;37283;49.760;8.648;2022-09-20T14:04:15;4.75;;;1.80;;
51216;SDS011;37283;49.760;8.648;2022-09-20T14:06:43;5.80;;;1.60;;
51216;SDS011;37283;49.760;8.648;2022-09-20T14:09:24;3.90;;;1.48;;
51216;SDS011;37283;49.760;8.648;2022-09-20T14:11:53;4.25;;;1.52;;
51216;SDS011;37283;49.760;8.648;2022-09-20T14:14:22;4.47;;;1.55;;
51216;SDS011;37283;49.760;8.648;2022-09-20T14:16:50;5.72;;;1.75;;
51216;SDS011;37283;49.760;8.648;2022-09-20T14:19:17;2.83;;;1.48;;
51216;SDS011;37283;49.760;8.648;2022-09-20T14:21:46;5.72;;;1.73;;
51216;SDS011;37283;49.760;8.648;2022-09-20T14:26:40;3.65;;;1.60;;
51216;SDS011;37283;49.760;8.648;2022-09-20T14:31:59;3.30;;;1.50;;
51216;SDS011;37283;49.760;8.648;2022-09-20T14:34:27;4.13;;;1.48;;
51216;SDS011;37283;49.760;8.648;2022-09-20T14:37:00;4.57;;;1.40;;
51216;SDS011;37283;49.760;8.648;2022-09-20T14:39:29;4.15;;;1.50;;
51216;SDS011;37283;49.760;8.648;2022-09-20T14:41:55;5.55;;;1.65;;
51216;SDS011;37283;49.760;8.648;2022-09-20T14:44:25;4.43;;;1.60;;
51216;SDS011;37283;49.760;8.648;2022-09-20T14:46:58;5.00;;;1.50;;
51216;SDS011;37283;49.760;8.648;2022-09-20T14:51:51;4.43;;;1.75;;
51216;SDS011;37283;49.760;8.648;2022-09-20T14:54:28;7.30;;;1.80;;
51216;SDS011;37283;49.760;8.648;2022-09-20T14:56:56;6.93;;;2.70;;
51216;SDS011;37283;49.760;8.648;2022-09-20T14:59:24;5.95;;;2.50;;
51216;SDS011;37283;49.760;8.648;2022-09-20T15:01:56;8.60;;;2.10;;
51216;SDS011;37283;49.760;8.648;2022-09-20T15:04:26;8.63;;;1.92;;
51216;SDS011;37283;49.760;8.648;2022-09-20T15:07:01;4.78;;;1.60;;
51216;SDS011;37283;49.760;8.648;2022-09-20T15:09:29;4.65;;;1.90;;
51216;SDS011;37283;49.760;8.648;2022-09-20T15:12:06;4.35;;;1.70;;
51216;SDS011;37283;49.760;8.648;2022-09-20T15:14:37;4.85;;;1.63;;
51216;SDS011;37283;49.760;8.648;2022-09-20T15:17:05;3.05;;;1.48;;
51216;SDS011;37283;49.760;8.648;2022-09-20T15:19:32;5.40;;;1.60;;
51216;SDS011;37283;49.760;8.648;2022-09-20T15:21:59;3.95;;;1.40;;
51216;SDS011;37283;49.760;8.648;2022-09-20T15:24:25;6.13;;;1.90;;
51216;SDS011;37283;49.760;8.648;2022-09-20T15:26:52;6.20;;;1.70;;
51216;SDS011;37283;49.760;8.648;2022-09-20T15:29:19;5.50;;;1.88;;
51216;SDS011;37283;49.760;8.648;2022-09-20T15:31:45;6.18;;;1.60;;
51216;SDS011;37283;49.760;8.648;2022-09-20T15:34:13;5.45;;;1.80;;
51216;SDS011;37283;49.760;8.648;2022-09-20T15:36:40;5.32;;;1.70;;
51216;SDS011;37283;49.760;8.648;2022-09-20T15:39:07;6.10;;;1.52;;
51216;SDS011;37283;49.760;8.648;2022-09-20T15:41:34;4.53;;;1.42;;
51216;SDS011;37283;49.760;8.648;2022-09-20T15:44:01;4.70;;;1.50;;
51216;SDS011;37283;49.760;8.648;2022-09-20T15:46:29;5.70;;;1.92;;
51216;SDS011;37283;49.760;8.648;2022-09-20T15:48:56;4.30;;;1.50;;
51216;SDS011;37283;49.760;8.648;2022-09-20T15:51:25;3.25;;;1.50;;
51216;SDS011;37283;49.760;8.648;2022-09-20T15:53:56;6.35;;;1.42;;
51216;SDS011;37283;49.760;8.648;2022-09-20T15:56:32;4.68;;;1.58;;
51216;SDS011;37283;49.760;8.648;2022-09-20T15:59:03;3.45;;;1.48;;
51216;SDS011;37283;49.760;8.648;2022-09-20T16:01:31;5.22;;;1.95;;
51216;SDS011;37283;49.760;8.648;2022-09-20T16:04:03;6.35;;;1.63;;
51216;SDS011;37283;49.760;8.648;2022-09-20T16:10:28;3.25;;;1.92;;
51216;SDS011;37283;49.760;8.648;2022-09-20T16:18:47;2.38;;;1.10;;
51216;SDS011;37283;49.760;8.648;2022-09-20T16:35:19;2.88;;;0.80;;
51216;SDS011;37283;49.760;8.648;2022-09-20T22:35:50;7.30;;;3.58;;
